Flight Track Log - Related Links

Times and Time Zones

All times are in EDT time to prevent confusion due to time zone crossing. See the BJS339 flight status page for this flight to view local times or setup timezone preferences in your user account.

Time Position Orientation Groundspeed Altitude Reporting Facility
EDT Latitude Longitude Course Direction KTS MPH feet Rate Location/Type
Fri 08:54:46 AM 38.8667 -76.0667 322° Northwest 194 223 2,200  Level Potomac TRACON
Fri 08:55:41 AM 38.9167 -76.1167 322° Northwest 233 268 4,200 1,826 Climbing Potomac TRACON
Fri 08:56:41 AM 38.9833 -76.1500 339° North 246 283 5,700 900 Climbing Potomac TRACON
Fri 08:57:41 AM 39.0333 -76.1833 333° Northwest 218 251 6,000 157 Climbing Potomac TRACON
Fri 08:58:36 AM 39.0667 -76.2333 311° West 211 243 6,000  Level Potomac TRACON
Fri 08:59:36 AM 39.1000 -76.3000 303° West 206 237 6,000  Level Potomac TRACON
Fri 09:00:36 AM 39.1167 -76.3667 288° West 211 243 6,000  Level Potomac TRACON
Fri 09:01:36 AM 39.1333 -76.4333 288° West 208 239 6,000  Level Potomac TRACON
Fri 09:02:31 AM 39.1667 -76.5000 303° West 209 241 6,000  Level Potomac TRACON
Fri 09:03:31 AM 39.1833 -76.5667 288° West 209 241 6,000  Level Potomac TRACON
Fri 09:04:31 AM 39.2167 -76.6333 303° West 211 243 6,000  Level Potomac TRACON
Fri 09:05:26 AM 39.2333 -76.7000 288° West 230 265 6,000  Level Potomac TRACON
Fri 09:06:26 AM 39.2500 -76.7667 288° West 223 257 6,000  Level Potomac TRACON
Fri 09:07:26 AM 39.2833 -76.8500 297° West 225 259 6,000 -250 Level Potomac TRACON
Fri 09:08:26 AM 39.2833 -76.9167 270° West 227 261 5,500 -500 Descending Potomac TRACON
Fri 09:09:26 AM 39.2667 -77.0000 256° West 225 259 5,000 -261 Descending Potomac TRACON
Fri 09:10:21 AM 39.2500 -77.0667 252° West 236 272 5,000  Level Potomac TRACON
Fri 09:11:21 AM 39.2000 -77.1333 226° Southwest 232 267 5,000  Level Potomac TRACON
Fri 09:12:21 AM 39.1667 -77.2000 237° Southwest 237 273 5,000 -250 Level Potomac TRACON
Fri 09:13:21 AM 39.1333 -77.2667 237° Southwest 238 274 4,500 -526 Descending Potomac TRACON
Fri 09:14:15 AM 39.1000 -77.3333 237° Southwest 225 259 4,000 -263 Descending Potomac TRACON
Fri 09:15:15 AM 39.0333 -77.3500 191° South 226 260 4,000 -300 Level Potomac TRACON
Fri 09:16:15 AM 38.9667 -77.3500 180° South 224 258 3,400 -496 Descending Potomac TRACON
Fri 09:17:16 AM 38.9167 -77.3500 180° South 211 243 3,000 -198 Descending Potomac TRACON
Fri 09:18:16 AM 38.8500 -77.3500 180° South 216 249 3,000 -450 Level Potomac TRACON
Fri 09:19:16 AM 38.8167 -77.4000 229° Southwest 200 230 2,100 -571 Descending Potomac TRACON
Fri 09:20:22 AM 38.8500 -77.4333 322° Northwest 156 180 1,800 -450 Descending Potomac TRACON
Fri 09:21:16 AM 38.8833 -77.4333 360° North 118 136 1,200 -684 Descending Potomac TRACON
Fri 09:22:16 AM 38.9167 -77.4333 360° North 126 145 500 -700 Descending Potomac TRACON
Fri 09:24:00 AM 38.9474 -77.4599 322° Northwest  Level Estimated
Fri 09:31:00 AM 38.9474 -77.4599 150° Southeast  Level Estimated

Login

Don't have an account? Register now (free) for customized features, flight alerts, and more!